createdAt,value
2018-04-28T00:00:58.225Z,14.20
2018-04-28T00:03:25.698Z,14.20
2018-04-28T00:05:53.189Z,14.30
2018-04-28T00:08:20.665Z,14.30
2018-04-28T00:10:48.922Z,14.30
2018-04-28T00:13:16.965Z,14.30
2018-04-28T00:15:44.520Z,14.30
2018-04-28T00:18:12.023Z,14.30
2018-04-28T00:20:40.269Z,14.20
2018-04-28T00:23:11.377Z,14.20
2018-04-28T00:26:06.350Z,14.30
2018-04-28T00:28:36.287Z,14.40
2018-04-28T00:31:09.696Z,14.40
2018-04-28T00:33:39.797Z,14.40
2018-04-28T00:36:07.984Z,14.40
2018-04-28T00:41:33.200Z,14.40
2018-04-28T00:44:14.294Z,14.30
2018-04-28T00:49:41.375Z,14.40
2018-04-28T00:52:08.829Z,14.30
2018-04-28T00:54:39.686Z,14.30
2018-04-28T01:00:08.118Z,14.30
2018-04-28T01:02:36.379Z,14.40
2018-04-28T01:05:03.844Z,14.30
2018-04-28T01:07:32.097Z,14.30
2018-04-28T01:10:00.381Z,14.40
2018-04-28T01:12:31.371Z,14.40
2018-04-28T01:18:00.679Z,14.40
2018-04-28T01:20:28.920Z,14.30
2018-04-28T01:22:56.358Z,14.30
2018-04-28T01:25:42.179Z,14.30
2018-04-28T01:28:26.856Z,14.40
2018-04-28T01:31:02.091Z,14.30
2018-04-28T01:33:47.956Z,14.30
2018-04-28T01:39:15.704Z,14.30
2018-04-28T01:45:00.508Z,14.30
2018-04-28T01:50:21.449Z,14.40
2018-04-28T01:52:50.720Z,14.50
2018-04-28T01:55:20.567Z,14.70
2018-04-28T01:57:51.376Z,14.80
2018-04-28T02:00:19.755Z,14.90
2018-04-28T02:05:52.543Z,15.10
2018-04-28T02:08:20.009Z,15.20
2018-04-28T02:10:53.048Z,15.30
2018-04-28T02:13:24.848Z,15.50
2018-04-28T02:15:53.027Z,15.40
2018-04-28T02:18:35.443Z,15.40
2018-04-28T02:21:28.314Z,15.40
2018-04-28T02:24:23.492Z,15.40
2018-04-28T02:26:53.939Z,15.50
2018-04-28T02:29:32.139Z,15.60
2018-04-28T02:45:52.960Z,15.40
2018-04-28T02:48:24.843Z,15.30
2018-04-28T02:50:56.544Z,15.30
2018-04-28T02:53:29.901Z,15.30
2018-04-28T02:56:01.772Z,15.40
2018-04-28T02:58:35.695Z,15.30
2018-04-28T03:01:05.783Z,15.40
2018-04-28T03:06:47.730Z,15.40
2018-04-28T03:09:15.269Z,15.40
2018-04-28T03:11:43.501Z,15.50
2018-04-28T03:14:11.739Z,15.50
2018-04-28T03:19:44.054Z,15.50
2018-04-28T03:22:18.457Z,15.50
2018-04-28T03:24:54.563Z,15.50
2018-04-28T03:27:29.829Z,15.50
2018-04-28T03:30:06.800Z,15.60
2018-04-28T03:32:37.751Z,15.50
2018-04-28T03:35:06.776Z,15.40
2018-04-28T03:37:36.159Z,15.40
2018-04-28T03:40:20.295Z,15.30
2018-04-28T03:42:53.356Z,15.20
2018-04-28T03:45:22.331Z,15.20
2018-04-28T03:48:02.529Z,15.10
2018-04-28T03:50:35.416Z,15.00
2018-04-28T03:56:11.663Z,15.00
2018-04-28T03:58:51.043Z,14.80
2018-04-28T04:01:30.495Z,14.60
2018-04-28T04:04:05.588Z,14.50
2018-04-28T04:09:38.852Z,14.40
2018-04-28T04:12:09.862Z,14.30
2018-04-28T04:14:54.815Z,14.20
2018-04-28T04:17:29.840Z,14.10
2018-04-28T04:23:05.923Z,14.00
2018-04-28T04:25:38.915Z,13.90
2018-04-28T04:31:05.475Z,14.00
2018-04-28T04:33:57.352Z,13.90
2018-04-28T04:36:28.347Z,13.90
2018-04-28T04:38:56.559Z,13.80
2018-04-28T04:41:24.735Z,13.80
2018-04-28T04:47:16.177Z,13.90
2018-04-28T04:50:02.074Z,13.90
2018-04-28T04:52:45.300Z,13.90
2018-04-28T04:55:12.743Z,13.90
2018-04-28T04:57:51.956Z,14.00
2018-04-28T05:00:27.056Z,13.80
2018-04-28T05:06:35.983Z,13.80
2018-04-28T05:09:19.247Z,13.70
2018-04-28T05:11:54.637Z,13.50
2018-04-28T05:17:19.206Z,13.50
2018-04-28T05:22:48.881Z,13.40
2018-04-28T05:25:28.085Z,13.50
2018-04-28T05:28:05.025Z,13.30
2018-04-28T05:30:38.020Z,13.30
2018-04-28T05:33:09.064Z,13.30
2018-04-28T05:38:33.691Z,13.50
2018-04-28T05:41:21.769Z,13.60
2018-04-28T05:47:02.530Z,13.30
2018-04-28T05:49:42.708Z,13.30
2018-04-28T05:52:43.818Z,13.20
2018-04-28T05:55:23.043Z,13.20
2018-04-28T05:58:15.100Z,13.30
2018-04-28T06:00:52.887Z,13.20
2018-04-28T06:03:34.084Z,13.20
2018-04-28T06:06:09.993Z,13.50
2018-04-28T06:08:40.942Z,13.50
2018-04-28T06:11:13.248Z,13.70
2018-04-28T06:13:53.323Z,14.00
2018-04-28T06:16:32.590Z,14.00
2018-04-28T06:19:09.832Z,14.00
2018-04-28T06:21:37.275Z,14.00
2018-04-28T06:24:05.503Z,13.90
2018-04-28T06:26:32.953Z,13.90
2018-04-28T06:29:00.408Z,13.80
2018-04-28T06:31:27.869Z,13.80
2018-04-28T06:33:55.337Z,13.80
2018-04-28T06:36:22.807Z,13.70
2018-04-28T06:38:50.370Z,13.70
2018-04-28T06:41:17.860Z,13.70
2018-04-28T06:43:46.080Z,13.60
2018-04-28T06:46:13.549Z,13.60
2018-04-28T06:48:41.040Z,13.60
2018-04-28T06:51:09.320Z,13.60
2018-04-28T06:53:36.739Z,13.50
2018-04-28T06:56:04.190Z,13.50
2018-04-28T06:58:31.671Z,13.50
2018-04-28T07:00:59.103Z,13.60
2018-04-28T07:03:26.545Z,13.50
2018-04-28T07:05:54.022Z,13.50
2018-04-28T07:08:21.470Z,13.50
2018-04-28T07:10:48.995Z,13.50
2018-04-28T07:13:16.373Z,13.60
2018-04-28T07:15:43.859Z,13.60
2018-04-28T07:18:11.304Z,13.60
2018-04-28T07:20:38.760Z,13.70
2018-04-28T07:23:06.204Z,13.80
2018-04-28T07:25:33.658Z,13.80
2018-04-28T07:28:01.113Z,13.70
2018-04-28T07:30:28.555Z,13.70
2018-04-28T07:32:55.994Z,13.70
2018-04-28T07:35:24.348Z,13.60
2018-04-28T07:37:51.691Z,13.60
2018-04-28T07:40:19.143Z,13.60
2018-04-28T07:42:46.583Z,13.60
2018-04-28T07:45:14.037Z,13.50
2018-04-28T07:47:41.556Z,13.40
2018-04-28T07:50:08.955Z,13.40
2018-04-28T07:52:36.405Z,13.30
2018-04-28T07:55:03.852Z,13.10
2018-04-28T07:57:31.305Z,13.00
2018-04-28T07:59:58.755Z,12.90
2018-04-28T08:02:26.966Z,13.00
2018-04-28T08:04:54.436Z,13.00
2018-04-28T08:07:21.871Z,13.00
2018-04-28T08:09:49.326Z,12.90
2018-04-28T08:12:17.768Z,12.90
2018-04-28T08:14:45.714Z,13.00
2018-04-28T08:17:13.146Z,12.90
2018-04-28T08:19:40.610Z,12.90
2018-04-28T08:22:08.156Z,12.90
2018-04-28T08:24:35.635Z,12.90
2018-04-28T08:27:03.135Z,12.90
2018-04-28T08:29:31.358Z,12.80
2018-04-28T08:31:58.816Z,12.80
2018-04-28T08:34:26.295Z,12.90
2018-04-28T08:36:53.960Z,12.80
2018-04-28T08:39:22.093Z,12.90
2018-04-28T08:41:49.543Z,12.90
2018-04-28T08:44:17.008Z,13.00
2018-04-28T08:46:44.468Z,13.00
2018-04-28T08:49:11.914Z,13.00
2018-04-28T08:51:39.360Z,13.10
2018-04-28T08:54:06.807Z,12.90
2018-04-28T08:56:35.045Z,13.00
2018-04-28T08:59:02.475Z,12.90
2018-04-28T09:01:29.937Z,13.00
2018-04-28T09:03:57.378Z,13.00
2018-04-28T09:06:24.844Z,13.00
2018-04-28T09:08:52.290Z,13.10
2018-04-28T09:11:19.758Z,13.10
2018-04-28T09:13:47.222Z,13.20
2018-04-28T09:16:14.694Z,13.30
2018-04-28T09:18:42.905Z,13.40
2018-04-28T09:21:11.135Z,13.40
2018-04-28T09:23:38.574Z,13.40
2018-04-28T09:26:06.079Z,13.40
2018-04-28T09:28:33.511Z,13.40
2018-04-28T09:31:00.968Z,13.60
2018-04-28T09:33:28.412Z,13.90
2018-04-28T09:35:55.872Z,14.10
2018-04-28T09:38:23.319Z,14.40
2018-04-28T09:40:50.865Z,14.90
2018-04-28T09:43:18.339Z,15.30
2018-04-28T09:45:45.812Z,15.70
2018-04-28T09:48:13.269Z,15.90
2018-04-28T09:50:40.704Z,16.00
2018-04-28T09:53:08.176Z,16.20
2018-04-28T09:55:35.606Z,16.50
2018-04-28T09:58:06.594Z,16.80
2018-04-28T10:03:41.891Z,17.30
2018-04-28T10:06:10.138Z,17.40
2018-04-28T10:08:37.593Z,17.40
2018-04-28T10:11:05.031Z,17.40
2018-04-28T10:13:32.926Z,17.40
2018-04-28T10:16:00.396Z,17.30
2018-04-28T10:18:28.747Z,17.40
2018-04-28T10:20:56.966Z,17.60
2018-04-28T10:23:24.550Z,17.50
2018-04-28T10:25:51.998Z,17.70
2018-04-28T10:28:19.464Z,17.80
2018-04-28T10:30:46.959Z,18.00
2018-04-28T10:33:14.372Z,18.30
2018-04-28T10:35:41.810Z,18.70
2018-04-28T10:38:10.034Z,18.90
2018-04-28T10:40:37.494Z,18.90
2018-04-28T10:43:04.946Z,18.90
2018-04-28T10:45:32.390Z,18.90
2018-04-28T10:47:59.835Z,19.20
2018-04-28T10:50:27.290Z,19.50
2018-04-28T10:52:54.855Z,19.50
2018-04-28T10:55:22.373Z,19.50
2018-04-28T10:57:49.931Z,19.80
2018-04-28T11:00:17.394Z,20.20
2018-04-28T11:02:45.254Z,20.50
2018-04-28T11:05:13.612Z,20.70
2018-04-28T11:07:41.102Z,20.70
2018-04-28T11:10:09.382Z,20.10
2018-04-28T11:12:37.632Z,20.30
2018-04-28T11:15:05.072Z,20.20
2018-04-28T11:17:32.947Z,20.50
2018-04-28T11:20:01.234Z,20.60
2018-04-28T11:22:28.671Z,20.60
2018-04-28T11:24:56.117Z,21.00
2018-04-28T11:27:23.580Z,21.40
2018-04-28T11:29:51.039Z,21.60
2018-04-28T11:32:18.503Z,21.70
2018-04-28T11:34:45.958Z,21.50
2018-04-28T11:37:13.439Z,21.50
2018-04-28T11:39:40.884Z,21.40
2018-04-28T11:42:08.328Z,21.50
2018-04-28T11:44:35.771Z,21.50
2018-04-28T11:47:03.220Z,21.50
2018-04-28T11:49:30.662Z,21.40
2018-04-28T11:51:58.146Z,21.40
2018-04-28T11:54:25.620Z,21.50
2018-04-28T11:56:53.037Z,21.20
2018-04-28T11:59:20.489Z,21.10
2018-04-28T12:01:47.929Z,20.80
2018-04-28T12:04:16.156Z,20.50
2018-04-28T12:06:43.585Z,20.50
2018-04-28T12:09:11.026Z,20.60
2018-04-28T12:11:39.228Z,20.60
2018-04-28T12:14:06.685Z,20.60
2018-04-28T12:16:34.130Z,20.70
2018-04-28T12:19:01.588Z,20.70
2018-04-28T12:21:29.023Z,20.70
2018-04-28T12:23:57.267Z,20.40
2018-04-28T12:26:24.704Z,20.40
2018-04-28T12:28:52.167Z,20.50
2018-04-28T12:31:19.602Z,20.60
2018-04-28T12:33:47.056Z,20.70
2018-04-28T12:36:14.508Z,20.70
2018-04-28T12:38:42.997Z,20.70
2018-04-28T12:41:10.465Z,20.80
2018-04-28T12:43:38.013Z,20.80
2018-04-28T12:46:05.465Z,20.60
2018-04-28T12:48:32.930Z,20.50
2018-04-28T12:51:00.375Z,20.50
2018-04-28T12:53:27.872Z,20.50
2018-04-28T12:55:55.310Z,20.30
2018-04-28T12:58:22.759Z,20.20
2018-04-28T13:00:50.234Z,20.30
2018-04-28T13:03:17.687Z,20.40
2018-04-28T13:05:45.132Z,20.40
2018-04-28T13:08:12.583Z,20.40
2018-04-28T13:10:40.096Z,20.40
2018-04-28T13:13:07.534Z,20.30
2018-04-28T13:15:34.983Z,20.30
2018-04-28T13:18:02.440Z,20.30
2018-04-28T13:20:29.879Z,20.30
2018-04-28T13:22:57.333Z,20.30
2018-04-28T13:25:24.770Z,20.30
2018-04-28T13:27:52.296Z,20.20
2018-04-28T13:30:19.763Z,20.20
2018-04-28T13:32:47.212Z,20.10
2018-04-28T13:35:14.663Z,20.00
2018-04-28T13:37:42.120Z,20.10
2018-04-28T13:40:09.559Z,20.00
2018-04-28T13:42:37.004Z,20.00
2018-04-28T13:45:04.460Z,20.00
2018-04-28T13:47:31.951Z,20.10
2018-04-28T13:49:59.408Z,20.00
2018-04-28T13:52:27.547Z,20.10
2018-04-28T13:54:55.056Z,20.10
2018-04-28T13:57:22.494Z,20.00
2018-04-28T13:59:49.943Z,20.00
2018-04-28T14:02:17.439Z,19.90
2018-04-28T14:04:45.648Z,19.90
2018-04-28T14:07:13.083Z,19.90
2018-04-28T14:09:40.540Z,19.90
2018-04-28T14:12:08.750Z,19.90
2018-04-28T14:14:36.344Z,19.90
2018-04-28T14:17:03.797Z,19.80
2018-04-28T14:19:31.242Z,19.80
2018-04-28T14:21:58.695Z,19.80
2018-04-28T14:24:26.145Z,19.80
2018-04-28T14:26:53.648Z,19.80
2018-04-28T14:29:21.031Z,19.90
2018-04-28T14:31:48.479Z,20.00
2018-04-28T14:34:15.926Z,20.10
2018-04-28T14:36:43.372Z,20.20
2018-04-28T14:39:11.587Z,20.20
2018-04-28T14:41:39.028Z,20.20
2018-04-28T14:44:06.476Z,20.20
2018-04-28T14:46:33.922Z,20.30
2018-04-28T14:49:02.132Z,20.30
2018-04-28T14:51:29.790Z,20.20
2018-04-28T14:53:57.243Z,20.20
2018-04-28T14:56:24.701Z,20.20
2018-04-28T14:58:52.146Z,20.20
2018-04-28T15:01:19.664Z,20.20
2018-04-28T15:03:47.822Z,20.20
2018-04-28T15:06:15.268Z,20.20
2018-04-28T15:08:42.705Z,20.20
2018-04-28T15:11:10.159Z,20.30
2018-04-28T15:13:37.605Z,20.20
2018-04-28T15:16:05.815Z,20.10
2018-04-28T15:18:33.256Z,20.10
2018-04-28T15:21:00.815Z,20.00
2018-04-28T15:23:28.243Z,20.00
2018-04-28T15:25:56.464Z,20.00
2018-04-28T15:28:23.923Z,20.00
2018-04-28T15:30:51.361Z,20.10
2018-04-28T15:33:18.797Z,20.00
2018-04-28T15:35:46.251Z,19.90
2018-04-28T15:38:14.453Z,19.80
2018-04-28T15:40:41.903Z,19.80
2018-04-28T15:43:09.347Z,19.70
2018-04-28T15:45:36.802Z,19.60
2018-04-28T15:48:04.246Z,19.70
2018-04-28T15:50:32.464Z,19.70
2018-04-28T15:52:59.900Z,19.70
2018-04-28T15:55:27.350Z,19.70
2018-04-28T15:57:54.793Z,19.70
2018-04-28T16:00:22.999Z,19.50
2018-04-28T16:02:50.570Z,19.50
2018-04-28T16:05:17.938Z,19.50
2018-04-28T16:07:45.375Z,19.50
2018-04-28T16:10:12.827Z,19.40
2018-04-28T16:12:40.271Z,19.30
2018-04-28T16:15:07.721Z,19.30
2018-04-28T16:17:35.932Z,19.20
2018-04-28T16:20:03.386Z,19.10
2018-04-28T16:22:30.830Z,19.10
2018-04-28T16:24:58.279Z,19.10
2018-04-28T16:27:25.831Z,19.10
2018-04-28T16:29:53.931Z,19.00
2018-04-28T16:32:21.382Z,19.00
2018-04-28T16:34:48.832Z,19.00
2018-04-28T16:37:16.282Z,19.00
2018-04-28T16:39:43.735Z,18.90
2018-04-28T16:42:11.183Z,18.90
2018-04-28T16:44:38.634Z,18.90
2018-04-28T16:47:06.856Z,18.80
2018-04-28T16:49:34.294Z,18.80
2018-04-28T16:52:01.743Z,18.70
2018-04-28T16:54:29.188Z,18.70
2018-04-28T16:56:57.412Z,18.60
2018-04-28T16:59:24.880Z,18.60
2018-04-28T17:01:52.332Z,18.50
2018-04-28T17:04:19.768Z,18.50
2018-04-28T17:06:47.223Z,18.40
2018-04-28T17:09:14.659Z,18.30
2018-04-28T17:11:42.112Z,18.30
2018-04-28T17:14:09.544Z,18.20
2018-04-28T17:16:37.759Z,18.20
2018-04-28T17:19:05.198Z,18.20
2018-04-28T17:21:32.650Z,18.10
2018-04-28T17:24:00.863Z,18.10
2018-04-28T17:26:28.305Z,18.10
2018-04-28T17:28:55.748Z,18.10
2018-04-28T17:31:23.204Z,18.10
2018-04-28T17:33:51.485Z,18.00
2018-04-28T17:36:21.195Z,18.00
2018-04-28T17:38:48.655Z,18.00
2018-04-28T17:41:16.117Z,18.00
2018-04-28T17:43:43.572Z,17.90
2018-04-28T17:46:11.045Z,17.90
2018-04-28T17:48:38.479Z,17.90
2018-04-28T17:51:05.937Z,17.90
2018-04-28T17:53:34.226Z,17.90
2018-04-28T17:56:01.679Z,17.80
2018-04-28T17:58:29.127Z,17.80
2018-04-28T18:00:56.576Z,17.70
2018-04-28T18:03:24.782Z,17.60
2018-04-28T18:05:52.223Z,17.60
2018-04-28T18:08:19.676Z,17.60
2018-04-28T18:10:47.129Z,17.60
2018-04-28T18:13:15.342Z,17.50
2018-04-28T18:15:42.781Z,17.50
2018-04-28T18:18:10.237Z,17.40
2018-04-28T18:20:37.678Z,17.30
2018-04-28T18:23:05.133Z,17.30
2018-04-28T18:25:33.332Z,17.20
2018-04-28T18:28:00.783Z,17.20
2018-04-28T18:30:28.223Z,17.10
2018-04-28T18:32:55.680Z,17.10
2018-04-28T18:35:23.944Z,17.00
2018-04-28T18:37:52.164Z,16.90
2018-04-28T18:40:19.612Z,16.90
2018-04-28T18:42:47.169Z,16.80
2018-04-28T18:45:14.619Z,16.80
2018-04-28T18:47:42.572Z,16.70
2018-04-28T18:50:10.074Z,16.70
2018-04-28T18:52:37.544Z,16.60
2018-04-28T18:55:05.057Z,16.60
2018-04-28T18:57:32.510Z,16.60
2018-04-28T18:59:59.951Z,16.50
2018-04-28T19:02:28.182Z,16.40
2018-04-28T19:04:55.620Z,16.40
2018-04-28T19:07:23.075Z,16.40
2018-04-28T19:09:50.551Z,16.40
2018-04-28T19:12:18.041Z,16.30
2018-04-28T19:14:46.270Z,16.20
2018-04-28T19:17:13.823Z,16.20
2018-04-28T19:19:41.340Z,16.10
2018-04-28T19:22:08.811Z,16.10
2018-04-28T19:24:36.237Z,16.00
2018-04-28T19:27:03.687Z,16.00
2018-04-28T19:29:31.134Z,15.90
2018-04-28T19:31:58.595Z,15.90
2018-04-28T19:34:26.054Z,15.90
2018-04-28T19:36:53.526Z,15.80
2018-04-28T19:39:20.973Z,15.80
2018-04-28T19:41:48.423Z,15.70
2018-04-28T19:44:15.865Z,15.70
2018-04-28T19:46:43.299Z,15.70
2018-04-28T19:49:10.751Z,15.60
2018-04-28T19:51:38.256Z,15.60
2018-04-28T19:54:05.759Z,15.50
2018-04-28T19:56:33.967Z,15.50
2018-04-28T19:59:01.423Z,15.40
2018-04-28T20:01:28.943Z,15.40
2018-04-28T20:03:56.332Z,15.40
2018-04-28T20:06:23.822Z,15.30
2018-04-28T20:08:51.283Z,15.30
2018-04-28T20:11:18.723Z,15.20
2018-04-28T20:13:46.181Z,15.30
2018-04-28T20:16:14.946Z,15.20
2018-04-28T20:18:42.393Z,15.20
2018-04-28T20:21:09.866Z,15.10
2018-04-28T20:23:49.221Z,15.10
2018-04-28T20:26:16.687Z,15.20
2018-04-28T20:28:44.141Z,15.10
2018-04-28T20:31:14.544Z,15.10
2018-04-28T20:33:42.000Z,15.10
2018-04-28T20:36:09.476Z,14.90
2018-04-28T20:38:36.951Z,14.70
2018-04-28T20:41:04.503Z,14.40
2018-04-28T20:43:32.223Z,14.10
2018-04-28T20:46:00.425Z,13.80
2018-04-28T20:48:27.876Z,13.80
2018-04-28T20:50:55.384Z,13.70
2018-04-28T20:53:22.836Z,13.50
2018-04-28T20:55:50.283Z,13.50
2018-04-28T20:58:17.736Z,13.50
2018-04-28T21:00:45.175Z,13.40
2018-04-28T21:03:12.619Z,13.30
2018-04-28T21:05:40.114Z,13.20
2018-04-28T21:08:07.563Z,13.20
2018-04-28T21:10:35.001Z,13.30
2018-04-28T21:13:02.439Z,13.20
2018-04-28T21:15:29.887Z,13.20
2018-04-28T21:17:57.331Z,13.20
2018-04-28T21:20:24.800Z,13.20
2018-04-28T21:22:53.009Z,13.00
2018-04-28T21:25:20.458Z,13.00
2018-04-28T21:27:47.906Z,13.00
2018-04-28T21:30:15.368Z,13.00
2018-04-28T21:32:42.800Z,12.90
2018-04-28T21:35:10.243Z,12.90
2018-04-28T21:37:38.482Z,12.80
2018-04-28T21:40:05.926Z,12.80
2018-04-28T21:42:33.375Z,12.80
2018-04-28T21:45:00.858Z,12.80
2018-04-28T21:47:28.305Z,12.80
2018-04-28T21:49:55.771Z,12.80
2018-04-28T21:52:23.206Z,12.70
2018-04-28T21:54:50.664Z,12.60
2018-04-28T21:57:18.092Z,12.60
2018-04-28T21:59:45.548Z,12.50
2018-04-28T22:02:12.991Z,12.50
2018-04-28T22:04:41.210Z,12.50
2018-04-28T22:07:08.656Z,12.50
2018-04-28T22:09:36.103Z,12.40
2018-04-28T22:12:03.544Z,12.20
2018-04-28T22:14:31.758Z,12.50
2018-04-28T22:16:59.210Z,12.50
2018-04-28T22:19:26.723Z,12.50
2018-04-28T22:21:54.083Z,12.40
2018-04-28T22:24:22.307Z,12.40
2018-04-28T22:26:49.747Z,12.40
2018-04-28T22:29:17.202Z,12.50
2018-04-28T22:31:44.638Z,12.50
2018-04-28T22:34:12.088Z,12.50
2018-04-28T22:36:40.298Z,12.30
2018-04-28T22:39:07.750Z,12.30
2018-04-28T22:41:35.271Z,12.30
2018-04-28T22:44:02.682Z,12.30
2018-04-28T22:46:30.143Z,12.30
2018-04-28T22:48:57.589Z,12.30
2018-04-28T22:51:25.039Z,12.40
2018-04-28T22:53:52.494Z,12.30
2018-04-28T22:56:19.939Z,12.20
2018-04-28T22:58:47.375Z,12.10
2018-04-28T23:01:15.590Z,12.00
2018-04-28T23:03:43.025Z,12.00
2018-04-28T23:06:10.492Z,12.00
2018-04-28T23:08:37.933Z,12.00
2018-04-28T23:11:06.152Z,12.00
2018-04-28T23:13:34.360Z,12.00
2018-04-28T23:16:01.807Z,12.10
2018-04-28T23:18:29.244Z,12.00
2018-04-28T23:20:56.698Z,12.10
2018-04-28T23:23:24.136Z,12.10
2018-04-28T23:25:51.593Z,12.10
2018-04-28T23:28:19.022Z,12.00
2018-04-28T23:30:47.231Z,12.00
2018-04-28T23:33:14.675Z,11.90
2018-04-28T23:35:42.123Z,12.00
2018-04-28T23:38:09.563Z,11.90
2018-04-28T23:40:37.776Z,11.70
2018-04-28T23:43:05.231Z,11.70
2018-04-28T23:45:32.674Z,11.70
2018-04-28T23:48:00.120Z,11.80
2018-04-28T23:50:27.642Z,11.80
2018-04-28T23:52:55.772Z,11.50
2018-04-28T23:55:23.214Z,11.40
2018-04-28T23:57:50.664Z,11.40
